Time;durP1;ratioP1;P1;durP2;ratioP2;P2;SDS_P1;SDS_P2;PMS_P1;PMS_P2;Temp;Humidity;BMP_temperature;BMP_pressure;BME280_temperature;BME280_humidity;BME280_pressure;Samples;Min_cycle;Max_cycle;Signal;HPM_P1;HPM_P2
2022/08/31 00:04:57;;;;;;;13.28;9.13;;;;;;;22.64;77.10;100638.95;1719294;83;21974;-90
2022/08/31 00:07:26;;;;;;;11.00;9.63;;;;;;;22.59;76.96;100620.76;1719342;83;20884;-90
2022/08/31 00:09:53;;;;;;;11.20;9.58;;;;;;;22.56;76.74;100625.09;1719353;82;20939;-89
2022/08/31 00:12:22;;;;;;;13.05;9.40;;;;;;;22.54;76.67;100631.96;1718418;83;20942;-90
2022/08/31 00:14:49;;;;;;;11.60;9.78;;;;;;;22.55;76.75;100646.16;1719517;83;21045;-89
2022/08/31 00:17:15;;;;;;;11.57;10.35;;;;;;;22.57;77.50;100658.84;1721048;82;21090;-89
2022/08/31 00:19:42;;;;;;;10.75;9.58;;;;;;;22.56;78.39;100657.98;1720385;83;20995;-91
2022/08/31 00:22:08;;;;;;;11.20;10.15;;;;;;;22.54;78.46;100657.35;1718135;83;20947;-89
2022/08/31 00:24:36;;;;;;;11.35;9.43;;;;;;;22.52;78.74;100659.36;1720806;83;20950;-89
2022/08/31 00:27:02;;;;;;;11.65;9.68;;;;;;;22.51;79.12;100653.66;1726191;83;20930;-90
2022/08/31 00:29:30;;;;;;;11.53;10.40;;;;;;;22.50;78.77;100664.03;1726723;83;21272;-89
2022/08/31 00:31:57;;;;;;;11.15;10.05;;;;;;;22.49;79.37;100675.71;1726467;82;20939;-90
2022/08/31 00:34:26;;;;;;;13.48;11.12;;;;;;;22.47;79.77;100672.88;1726151;83;20927;-89
2022/08/31 00:36:52;;;;;;;11.97;10.78;;;;;;;22.43;80.23;100692.92;1725566;83;20950;-90
2022/08/31 00:39:19;;;;;;;14.87;11.63;;;;;;;22.39;80.70;100715.16;1725991;82;21002;-90
2022/08/31 00:41:46;;;;;;;14.33;11.97;;;;;;;22.35;81.00;100732.01;1726247;82;21318;-89
2022/08/31 00:44:13;;;;;;;12.50;9.65;;;;;;;22.29;80.79;100735.34;1727673;83;20899;-90
2022/08/31 00:46:41;;;;;;;10.50;9.40;;;;;;;22.25;80.41;100716.62;1728275;83;20983;-88
2022/08/31 00:49:16;;;;;;;10.55;9.65;;;;;;;22.23;80.08;100727.15;1727817;83;20911;-90
2022/08/31 00:52:02;;;;;;;9.85;8.93;;;;;;;22.21;79.24;100730.45;1727549;83;20939;-88
2022/08/31 00:54:44;;;;;;;9.93;8.73;;;;;;;22.20;78.23;100725.62;1727594;82;21274;-89
2022/08/31 00:57:11;;;;;;;12.73;8.23;;;;;;;22.20;76.95;100726.13;1727097;83;20899;-89
2022/08/31 00:59:39;;;;;;;8.43;7.62;;;;;;;22.19;75.97;100726.63;1727755;83;20911;-88
2022/08/31 01:02:06;;;;;;;9.83;8.00;;;;;;;22.20;75.38;100730.95;1727726;83;21041;-89
2022/08/31 01:04:32;;;;;;;9.75;8.45;;;;;;;22.22;75.19;100734.33;1727458;82;20915;-88
2022/08/31 01:06:59;;;;;;;8.95;7.97;;;;;;;22.24;75.28;100733.67;1727266;83;21133;-89
2022/08/31 01:09:27;;;;;;;10.18;9.00;;;;;;;22.26;75.94;100718.82;1727298;83;21515;-87
2022/08/31 01:11:54;;;;;;;10.93;9.00;;;;;;;22.25;76.24;100705.94;1727122;83;21372;-88
2022/08/31 01:14:21;;;;;;;10.48;9.23;;;;;;;22.24;76.48;100696.27;1726863;83;20911;-88
2022/08/31 01:16:51;;;;;;;11.28;9.45;;;;;;;22.23;76.95;100670.57;1726382;82;20950;-91
2022/08/31 01:19:35;;;;;;;10.28;9.15;;;;;;;22.24;76.75;100661.54;1725638;83;21149;-91
2022/08/31 01:22:36;;;;;;;12.35;10.25;;;;;;;22.24;77.07;100656.19;1725956;83;20903;-90
2022/08/31 01:25:04;;;;;;;11.83;9.65;;;;;;;22.24;77.19;100659.38;1729392;83;20898;-90
2022/08/31 01:27:33;;;;;;;11.55;9.15;;;;;;;22.22;77.71;100652.02;1731477;82;20954;-90
2022/08/31 01:30:04;;;;;;;9.68;8.78;;;;;;;22.19;77.58;100635.80;1731798;82;20963;-89
2022/08/31 01:32:32;;;;;;;13.55;9.70;;;;;;;22.15;77.96;100621.11;1731776;82;21154;-89
2022/08/31 01:34:58;;;;;;;12.33;10.08;;;;;;;22.09;78.26;100619.92;1731520;82;20919;-89
2022/08/31 01:37:28;;;;;;;14.98;10.25;;;;;;;22.07;78.62;100614.42;1731095;82;20820;-91
2022/08/31 01:39:55;;;;;;;11.78;10.58;;;;;;;22.03;78.24;100610.41;1731007;82;21078;-90
2022/08/31 01:42:21;;;;;;;20.35;11.48;;;;;;;22.02;78.64;100614.09;1730832;82;20954;-91
2022/08/31 01:44:48;;;;;;;13.93;11.12;;;;;;;22.03;79.32;100619.77;1731047;82;21090;-89
2022/08/31 01:47:15;;;;;;;16.50;10.90;;;;;;;21.99;79.85;100617.94;1729982;83;20907;-92
2022/08/31 01:49:42;;;;;;;14.70;11.18;;;;;;;21.98;80.33;100625.60;1729232;83;21046;-89
2022/08/31 01:52:09;;;;;;;14.25;9.98;;;;;;;21.94;80.90;100622.92;1729345;83;21432;-89
2022/08/31 01:54:36;;;;;;;14.05;10.55;;;;;;;21.90;81.27;100627.78;1729143;82;20977;-92
2022/08/31 01:57:05;;;;;;;13.25;10.60;;;;;;;21.85;81.47;100626.09;1728719;83;21135;-92
2022/08/31 01:59:50;;;;;;;13.00;11.55;;;;;;;21.80;81.86;100618.26;1728806;83;20918;-91
2022/08/31 02:02:23;;;;;;;13.98;10.82;;;;;;;21.75;82.24;100618.75;1728361;83;21387;-91
2022/08/31 02:04:50;;;;;;;12.10;11.00;;;;;;;21.71;82.43;100621.41;1728617;83;20915;-91
2022/08/31 02:07:19;;;;;;;12.35;11.10;;;;;;;21.68;82.75;100618.58;1729036;82;20954;-91
2022/08/31 02:09:45;;;;;;;13.58;10.58;;;;;;;21.64;82.96;100617.73;1728724;82;21755;-90
2022/08/31 02:12:12;;;;;;;14.47;11.10;;;;;;;21.60;83.39;100621.22;1729762;83;20852;-92
2022/08/31 02:14:41;;;;;;;15.90;11.43;;;;;;;21.57;83.48;100617.56;1726655;83;20989;-91
2022/08/31 02:17:08;;;;;;;13.43;11.48;;;;;;;21.55;83.90;100612.88;1728695;83;20899;-91
2022/08/31 02:19:35;;;;;;;13.00;10.90;;;;;;;21.55;84.57;100621.39;1702012;83;20935;-91
2022/08/31 02:22:02;;;;;;;13.95;11.53;;;;;;;21.52;84.76;100626.06;1728438;83;21150;-92
2022/08/31 02:24:29;;;;;;;18.00;11.65;;;;;;;21.54;84.92;100628.54;1728458;82;20978;-92
2022/08/31 02:26:56;;;;;;;13.70;12.30;;;;;;;21.52;85.12;100626.06;1728668;82;20879;-93
2022/08/31 02:29:22;;;;;;;13.05;11.75;;;;;;;21.52;85.11;100623.39;1728412;82;20911;-92
2022/08/31 02:31:49;;;;;;;17.40;11.48;;;;;;;21.52;85.23;100625.20;1728278;83;20887;-90
2022/08/31 02:34:16;;;;;;;15.05;13.05;;;;;;;21.49;85.19;100623.70;1728355;83;21246;-93
2022/08/31 02:36:44;;;;;;;12.35;11.15;;;;;;;21.46;85.28;100623.20;1728195;83;20891;-91
2022/08/31 02:39:12;;;;;;;18.05;12.23;;;;;;;21.42;85.65;100617.85;1725860;82;20917;-90
2022/08/31 02:41:40;;;;;;;17.23;13.45;;;;;;;21.40;85.81;100620.64;1728684;82;21439;-90
2022/08/31 02:44:06;;;;;;;15.75;11.68;;;;;;;21.37;86.30;100616.15;1702912;83;21045;-90
2022/08/31 02:46:33;;;;;;;18.07;16.37;;;;;;;21.36;86.65;100620.63;1729565;82;21104;-89
2022/08/31 02:49:20;;;;;;;14.80;13.40;;;;;;;21.37;86.85;100626.82;1726903;83;20935;-90
2022/08/31 02:51:48;;;;;;;14.35;12.47;;;;;;;21.37;87.11;100621.48;1728499;82;20989;-89
2022/08/31 02:54:15;;;;;;;13.95;12.20;;;;;;;21.36;87.05;100619.30;1728302;83;20875;-91
2022/08/31 02:56:41;;;;;;;14.55;12.13;;;;;;;21.34;87.12;100629.28;1728664;83;20914;-91
2022/08/31 02:59:08;;;;;;;13.60;12.15;;;;;;;21.30;87.32;100624.80;1728436;83;21335;-92
2022/08/31 03:01:36;;;;;;;14.53;13.03;;;;;;;21.28;87.50;100624.12;1728618;82;20930;-91
2022/08/31 03:04:04;;;;;;;14.65;13.18;;;;;;;21.25;87.92;100620.42;1728296;82;20947;-90
2022/08/31 03:06:31;;;;;;;15.00;13.40;;;;;;;21.25;88.24;100623.59;1728548;82;20910;-91
2022/08/31 03:09:00;;;;;;;14.18;12.70;;;;;;;21.25;88.48;100623.09;1728406;83;20943;-92
2022/08/31 03:11:27;;;;;;;13.25;11.60;;;;;;;21.27;88.54;100624.27;1729170;82;21542;-91
2022/08/31 03:13:56;;;;;;;14.28;12.80;;;;;;;21.27;88.64;100625.60;1729062;82;20899;-93
2022/08/31 03:16:23;;;;;;;16.45;13.22;;;;;;;21.25;88.73;100625.75;1728530;82;21321;-91
2022/08/31 03:18:50;;;;;;;14.13;12.65;;;;;;;21.24;88.82;100636.10;1725917;82;20994;-92
2022/08/31 03:21:17;;;;;;;13.60;12.00;;;;;;;21.24;88.90;100636.61;1728375;82;20867;-92
2022/08/31 03:23:44;;;;;;;17.73;13.30;;;;;;;21.23;88.95;100638.92;1729013;82;21869;-90
2022/08/31 03:26:11;;;;;;;13.45;11.55;;;;;;;21.23;88.96;100634.92;1727410;82;20847;-89
2022/08/31 03:28:39;;;;;;;12.60;11.33;;;;;;;21.21;89.04;100640.91;1727626;83;20998;-88
2022/08/31 03:31:23;;;;;;;13.32;12.00;;;;;;;21.19;89.12;100638.91;1727994;83;20947;-92
2022/08/31 03:33:51;;;;;;;15.58;12.35;;;;;;;21.18;89.20;100645.24;1728738;82;20826;-92
2022/08/31 03:36:19;;;;;;;16.20;13.18;;;;;;;21.17;89.35;100649.75;1726356;82;21104;-92
2022/08/31 03:38:47;;;;;;;15.23;12.73;;;;;;;21.19;89.50;100642.42;1728142;82;21309;-91
2022/08/31 03:41:17;;;;;;;15.90;13.05;;;;;;;21.19;89.44;100638.42;1726746;83;20884;-92
2022/08/31 03:43:44;;;;;;;15.30;13.20;;;;;;;21.20;89.39;100643.26;1726633;82;20907;-92
2022/08/31 03:46:12;;;;;;;18.32;13.50;;;;;;;21.21;89.45;100651.58;1726829;82;20893;-92
2022/08/31 03:48:41;;;;;;;14.98;13.70;;;;;;;21.23;89.46;100657.12;1726580;83;21244;-92
2022/08/31 03:51:08;;;;;;;14.93;13.43;;;;;;;21.26;89.38;100654.63;1726794;83;20939;-92
2022/08/31 03:53:36;;;;;;;14.20;12.07;;;;;;;21.27;89.29;100655.77;1701319;83;21025;-91
2022/08/31 03:56:08;;;;;;;14.20;12.93;;;;;;;21.29;88.75;100652.45;1728433;83;20930;-90
2022/08/31 03:58:37;;;;;;;15.08;13.30;;;;;;;21.30;88.68;100655.98;1728137;83;21069;-89
2022/08/31 04:01:06;;;;;;;15.55;13.90;;;;;;;21.30;88.73;100658.64;1728216;83;21528;-91
2022/08/31 04:03:49;;;;;;;13.55;12.25;;;;;;;21.36;88.68;100661.15;1706249;83;20950;-91
2022/08/31 04:06:35;;;;;;;13.48;12.18;;;;;;;21.39;88.39;100659.48;1729035;82;20876;-91
2022/08/31 04:09:21;;;;;;;12.95;11.78;;;;;;;21.41;88.11;100662.86;1728513;82;20927;-90
2022/08/31 04:11:55;;;;;;;15.25;13.18;;;;;;;21.43;88.30;100663.53;1710886;82;20954;-92
2022/08/31 04:14:39;;;;;;;14.18;12.73;;;;;;;21.47;88.27;100664.89;1692711;82;21127;-90
2022/08/31 04:17:16;;;;;;;15.72;13.20;;;;;;;21.46;88.02;100656.05;1595756;86;20937;-90
2022/08/31 04:19:45;;;;;;;14.07;12.95;;;;;;;21.53;88.08;100666.41;1704762;83;21066;-92
2022/08/31 04:22:15;;;;;;;21.10;12.82;;;;;;;21.57;87.60;100661.59;1705040;83;20950;-91
2022/08/31 04:24:44;;;;;;;13.85;12.47;;;;;;;21.60;87.44;100661.25;1701917;81;20994;-90
2022/08/31 04:27:11;;;;;;;14.85;13.05;;;;;;;21.64;87.15;100662.60;1680802;82;21088;-91
2022/08/31 04:29:38;;;;;;;16.17;14.55;;;;;;;21.66;87.01;100663.78;1679791;84;21030;-91
2022/08/31 04:32:05;;;;;;;16.17;13.62;;;;;;;21.70;87.01;100661.13;1680161;84;20972;-92
2022/08/31 04:34:34;;;;;;;16.77;14.15;;;;;;;21.75;86.91;100663.30;1679841;84;20983;-90
2022/08/31 04:37:01;;;;;;;20.95;18.82;;;;;;;21.79;86.23;100664.63;1680033;84;20897;-92
2022/08/31 04:39:28;;;;;;;19.85;16.90;;;;;;;21.81;86.01;100664.82;1679850;84;21096;-90
2022/08/31 04:41:55;;;;;;;17.20;14.68;;;;;;;21.83;86.07;100665.49;1679339;84;20976;-91
2022/08/31 04:44:22;;;;;;;16.60;14.73;;;;;;;21.88;85.97;100667.16;1644268;84;20953;-92
2022/08/31 04:46:52;;;;;;;16.67;15.05;;;;;;;21.96;85.76;100670.33;1667115;84;20994;-88
2022/08/31 04:49:22;;;;;;;17.27;15.32;;;;;;;22.03;85.45;100666.49;1698674;83;21374;-90
2022/08/31 04:51:51;;;;;;;17.25;14.90;;;;;;;22.08;84.86;100668.19;1686283;84;21661;-93
2022/08/31 04:54:18;;;;;;;18.07;15.60;;;;;;;22.14;84.71;100675.52;1706692;83;20893;-91
2022/08/31 04:56:45;;;;;;;16.10;14.50;;;;;;;22.29;84.98;100667.20;1707074;83;21035;-91
2022/08/31 04:59:16;;;;;;;15.35;13.75;;;;;;;22.63;84.56;100672.84;1685514;83;21028;-91
2022/08/31 05:01:54;;;;;;;16.57;14.65;;;;;;;23.11;83.14;100672.44;1706686;83;20987;-94
2022/08/31 05:04:39;;;;;;;15.93;14.03;;;;;;;23.70;80.40;100672.48;1705826;83;21163;-91
2022/08/31 05:07:06;;;;;;;17.65;14.53;;;;;;;24.14;77.51;100678.58;1706009;83;20940;-91
2022/08/31 05:09:35;;;;;;;16.02;14.28;;;;;;;24.32;75.56;100676.44;1706316;83;21347;-91
2022/08/31 05:12:03;;;;;;;15.32;13.93;;;;;;;24.55;74.65;100679.10;1707408;83;20944;-91
2022/08/31 05:14:34;;;;;;;17.42;13.88;;;;;;;24.90;73.99;100674.55;1706884;83;20936;-90
2022/08/31 05:18:21;;;;;;;14.73;13.20;;;;;;;25.68;71.37;100681.66;1787413;79;25735;-93
2022/08/31 05:21:13;;;;;;;13.90;12.60;;;;;;;26.15;69.99;100685.70;1773149;80;20995;-92
2022/08/31 05:24:05;;;;;;;14.03;12.73;;;;;;;26.63;67.95;100673.27;1645430;85;22147;-91
2022/08/31 05:26:39;;;;;;;13.08;10.95;;;;;;;27.17;65.76;100675.78;1618867;86;21487;-90
2022/08/31 05:29:07;;;;;;;12.40;11.10;;;;;;;27.65;64.47;100674.95;1626277;87;20980;-93
2022/08/31 05:31:37;;;;;;;13.45;11.53;;;;;;;28.12;62.55;100678.58;1602928;88;21065;-91
2022/08/31 05:34:04;;;;;;;12.95;11.50;;;;;;;28.53;61.13;100676.77;1634294;85;20979;-93
2022/08/31 05:36:37;;;;;;;;;;;;;;;28.91;59.76;100673.67;1641702;85;20945;-92
2022/08/31 05:39:08;;;;;;;12.10;10.93;;;;;;;29.31;58.45;100683.02;1647278;85;20130;-91
2022/08/31 05:41:39;;;;;;;15.18;10.03;;;;;;;29.65;57.57;100680.16;1637100;86;20938;-93
2022/08/31 05:44:06;;;;;;;12.25;11.03;;;;;;;30.02;56.24;100686.62;1635316;85;20963;-93
2022/08/31 05:46:35;;;;;;;12.63;11.43;;;;;;;30.34;55.48;100686.60;1647347;86;21047;-90
2022/08/31 05:49:02;;;;;;;12.63;11.35;;;;;;;30.68;54.11;100693.39;1626236;85;21070;-91
2022/08/31 05:51:30;;;;;;;13.00;11.95;;;;;;;30.95;53.11;100694.50;1637088;85;20951;-91
2022/08/31 05:53:58;;;;;;;12.88;11.78;;;;;;;31.15;52.29;100699.70;1637578;86;20994;-92
2022/08/31 05:56:25;;;;;;;17.65;11.95;;;;;;;31.36;51.46;100699.74;1649482;86;20967;-94
2022/08/31 05:58:54;;;;;;;13.25;12.00;;;;;;;31.58;50.80;100700.12;1621584;85;20996;-92
2022/08/31 06:01:31;;;;;;;16.55;12.30;;;;;;;31.81;50.21;100699.37;1703217;82;21853;-92
2022/08/31 06:04:00;;;;;;;11.85;10.88;;;;;;;32.10;49.57;100696.88;1722451;82;20967;-91
2022/08/31 06:06:26;;;;;;;12.33;11.22;;;;;;;32.36;48.69;100695.63;1720652;81;21062;-95
2022/08/31 06:08:55;;;;;;;13.48;11.75;;;;;;;32.56;47.75;100698.03;1758445;80;20956;-94
2022/08/31 06:11:24;;;;;;;12.60;11.48;;;;;;;32.80;47.22;100695.60;1775519;80;20845;-93
2022/08/31 06:13:54;;;;;;;13.00;11.50;;;;;;;33.01;46.35;100691.42;1741396;80;21134;-92
2022/08/31 06:16:21;;;;;;;11.90;10.75;;;;;;;33.23;46.27;100693.00;1761901;80;21544;-92
2022/08/31 06:18:50;;;;;;;12.65;10.82;;;;;;;33.44;45.69;100696.97;1745324;80;20940;-91
2022/08/31 06:21:24;;;;;;;16.23;14.60;;;;;;;33.67;44.88;100702.05;1769053;80;20892;-93
2022/08/31 06:23:52;;;;;;;12.60;11.35;;;;;;;33.82;44.07;100698.25;1754457;80;21473;-91
2022/08/31 06:26:21;;;;;;;11.53;10.30;;;;;;;33.99;44.15;100706.96;1744877;80;21149;-91
2022/08/31 06:28:51;;;;;;;12.35;11.10;;;;;;;34.15;43.99;100700.76;1739269;80;21026;-92
2022/08/31 06:31:26;;;;;;;13.00;10.20;;;;;;;34.25;43.32;100709.08;1762369;80;20909;-91
2022/08/31 06:33:54;;;;;;;12.28;10.03;;;;;;;34.38;42.56;100713.37;1774454;80;21351;-93
2022/08/31 06:36:32;;;;;;;11.48;9.65;;;;;;;34.52;42.31;100707.04;1769886;80;20964;-90
2022/08/31 06:39:01;;;;;;;10.90;9.85;;;;;;;34.73;42.23;100711.45;1730628;80;21342;-91
2022/08/31 06:41:35;;;;;;;12.45;11.25;;;;;;;34.92;41.94;100706.00;1720045;81;20928;-91
2022/08/31 06:44:10;;;;;;;11.12;10.03;;;;;;;35.17;41.50;100700.08;1753897;80;21077;-92
2022/08/31 06:46:44;;;;;;;12.07;10.85;;;;;;;35.41;40.60;100703.37;1759668;80;20900;-91
2022/08/31 06:49:19;;;;;;;12.20;11.20;;;;;;;35.61;40.45;100702.77;1775209;80;22267;-91
2022/08/31 06:51:46;;;;;;;12.90;11.60;;;;;;;35.78;39.90;100696.43;1759170;79;21096;-90
2022/08/31 06:54:14;;;;;;;16.45;10.68;;;;;;;35.96;39.49;100697.41;1783953;80;21115;-91
2022/08/31 06:57:01;;;;;;;14.90;11.15;;;;;;;36.14;39.10;100698.95;1768160;80;21078;-89
2022/08/31 06:59:46;;;;;;;10.85;9.75;;;;;;;36.30;38.65;100691.16;1777344;80;20995;-93
2022/08/31 07:02:15;;;;;;;11.08;10.13;;;;;;;36.47;38.26;100689.64;1770787;80;21613;-91
2022/08/31 07:04:42;;;;;;;11.18;9.80;;;;;;;36.61;37.88;100689.20;1774605;80;21156;-90
2022/08/31 07:07:10;;;;;;;11.05;10.05;;;;;;;36.64;37.35;100684.57;1753348;80;21010;-92
2022/08/31 07:09:38;;;;;;;10.63;9.70;;;;;;;36.60;37.37;100690.31;1780000;80;20963;-92
2022/08/31 07:12:05;;;;;;;9.90;8.95;;;;;;;36.57;36.98;100685.32;1778840;80;20904;-90
2022/08/31 07:14:32;;;;;;;10.53;9.53;;;;;;;36.55;36.13;100690.23;1752353;80;20959;-91
2022/08/31 07:17:03;;;;;;;10.00;9.20;;;;;;;36.53;36.46;100694.61;1749864;80;21143;-94
2022/08/31 07:19:32;;;;;;;10.03;9.13;;;;;;;36.61;36.09;100691.94;1763884;80;21113;-92
2022/08/31 07:22:00;;;;;;;10.85;9.83;;;;;;;36.69;36.27;100690.09;1757788;80;21504;-93
2022/08/31 07:24:32;;;;;;;10.85;9.95;;;;;;;36.76;36.53;100691.22;1772611;80;20943;-93
2022/08/31 07:27:04;;;;;;;11.30;10.03;;;;;;;36.86;36.67;100685.78;1759271;80;20960;-96
2022/08/31 07:29:40;;;;;;;10.85;9.95;;;;;;;36.95;35.57;100680.63;1689854;83;21663;-95
2022/08/31 07:32:11;;;;;;;10.60;9.58;;;;;;;37.01;35.57;100674.10;1717000;83;21580;-93
2022/08/31 07:34:39;;;;;;;11.43;10.30;;;;;;;37.20;35.74;100664.36;1691021;83;21014;-94
2022/08/31 07:43:00;;;;;;;11.85;10.78;;;;;;;37.79;34.80;100662.30;1710475;83;21731;-94
2022/08/31 07:45:28;;;;;;;11.55;10.40;;;;;;;37.97;34.29;100662.30;1674549;82;20872;-94
2022/08/31 07:47:56;;;;;;;12.60;11.35;;;;;;;38.15;33.63;100658.50;1711480;81;20984;-96
2022/08/31 07:50:26;;;;;;;14.47;10.75;;;;;;;38.32;33.87;100661.48;1693305;82;21023;-93
2022/08/31 07:52:56;;;;;;;13.08;11.88;;;;;;;38.41;33.43;100654.34;1694152;82;20956;-92
2022/08/31 07:55:44;;;;;;;17.98;10.75;;;;;;;38.51;33.14;100656.25;1710141;83;22074;-94
2022/08/31 07:58:16;;;;;;;11.68;10.58;;;;;;;38.62;33.58;100651.03;1692707;83;20951;-95
2022/08/31 08:00:46;;;;;;;10.88;9.73;;;;;;;38.79;32.76;100644.39;1705673;83;21075;-92
2022/08/31 08:03:11;;;;;;;10.03;9.28;;;;;;;38.95;31.18;100645.45;1716932;83;20968;-92
2022/08/31 08:05:40;;;;;;;9.68;8.70;;;;;;;39.01;31.02;100644.05;1710178;83;20900;-93
2022/08/31 08:08:15;;;;;;;11.22;9.30;;;;;;;39.15;30.44;100645.06;1713832;79;21165;-92
2022/08/31 08:11:02;;;;;;;9.08;8.28;;;;;;;39.31;29.73;100633.44;1767586;80;20893;-93
2022/08/31 08:13:39;;;;;;;8.75;7.92;;;;;;;39.49;29.04;100628.70;1757107;80;21038;-91
2022/08/31 08:16:09;;;;;;;8.38;7.33;;;;;;;39.55;29.48;100627.53;1693323;83;20918;-93
2022/08/31 08:18:47;;;;;;;7.55;6.45;;;;;;;39.64;28.10;100629.11;1731392;80;21062;-92
2022/08/31 08:21:16;;;;;;;7.35;6.60;;;;;;;39.75;27.79;100629.85;1762318;80;21972;-93
2022/08/31 08:23:43;;;;;;;7.67;6.37;;;;;;;39.85;27.22;100631.18;1771302;80;20940;-95
2022/08/31 08:26:28;;;;;;;7.65;7.05;;;;;;;39.91;26.84;100626.45;1748154;80;21042;-93
2022/08/31 08:29:00;;;;;;;7.42;6.70;;;;;;;40.08;27.13;100624.09;1758869;79;20892;-93
2022/08/31 08:31:28;;;;;;;7.75;7.15;;;;;;;40.23;27.51;100623.69;1775995;80;21010;-92
2022/08/31 08:33:54;;;;;;;9.13;7.28;;;;;;;40.40;27.11;100621.33;1772816;80;21134;-91
2022/08/31 08:36:21;;;;;;;7.95;7.00;;;;;;;40.49;27.60;100622.86;1726284;80;20915;-93
2022/08/31 08:38:50;;;;;;;8.58;6.78;;;;;;;40.58;26.66;100612.88;1782852;80;20975;-90
2022/08/31 08:41:26;;;;;;;7.62;6.83;;;;;;;40.55;26.40;100608.75;1751719;79;20891;-93
2022/08/31 08:43:57;;;;;;;8.13;7.45;;;;;;;40.55;26.62;100609.32;1761415;79;20946;-92
2022/08/31 08:46:40;;;;;;;9.58;7.28;;;;;;;40.33;27.42;100607.09;1766963;80;21307;-93
2022/08/31 08:49:18;;;;;;;9.50;7.58;;;;;;;40.25;27.63;100603.05;1781066;80;20991;-92
2022/08/31 08:51:51;;;;;;;7.62;6.92;;;;;;;40.30;27.29;100603.57;1750142;80;21045;-94
2022/08/31 08:54:35;;;;;;;9.60;7.50;;;;;;;40.50;27.41;100610.20;1774228;80;21057;-93
2022/08/31 08:57:14;;;;;;;7.35;6.62;;;;;;;40.64;26.80;100608.11;1771746;80;21046;-92
2022/08/31 08:59:44;;;;;;;9.48;7.53;;;;;;;40.72;26.81;100608.31;1769782;80;21157;-93
2022/08/31 09:02:42;;;;;;;7.17;6.58;;;;;;;40.65;27.03;100608.39;1757502;80;20951;-92
2022/08/31 09:05:40;;;;;;;8.28;6.47;;;;;;;40.67;26.58;100606.98;1761636;80;21035;-92
2022/08/31 09:08:34;;;;;;;7.27;6.73;;;;;;;40.79;26.59;100610.14;1759663;80;21337;-92
2022/08/31 09:11:29;;;;;;;7.42;6.20;;;;;;;40.80;25.96;100606.29;1778961;80;21303;-91
2022/08/31 09:14:35;;;;;;;8.08;6.08;;;;;;;40.76;26.29;100601.68;1774557;80;21320;-91
2022/08/31 09:17:27;;;;;;;10.28;6.33;;;;;;;40.84;26.97;100598.81;1761203;80;21051;-89
2022/08/31 09:19:59;;;;;;;8.40;6.55;;;;;;;40.86;26.76;100602.09;1774988;80;20864;-90
2022/08/31 09:22:34;;;;;;;7.28;6.58;;;;;;;40.93;26.84;100595.09;1750813;80;21010;-92
2022/08/31 09:25:02;;;;;;;6.40;5.80;;;;;;;40.98;26.82;100592.86;1747513;80;20907;-92
2022/08/31 09:28:01;;;;;;;9.58;6.55;;;;;;;41.01;26.86;100595.81;1750038;80;21156;-90
2022/08/31 09:30:50;;;;;;;9.33;7.00;;;;;;;41.06;26.95;100596.86;1758616;80;20913;-90
2022/08/31 09:33:24;;;;;;;7.03;6.22;;;;;;;41.08;26.67;100591.31;1751713;80;20955;-90
2022/08/31 09:35:57;;;;;;;7.20;6.37;;;;;;;41.27;26.02;100583.63;1762030;80;20916;-88
2022/08/31 09:38:30;;;;;;;6.30;5.58;;;;;;;41.42;25.58;100588.35;1763580;80;20937;-91
2022/08/31 09:40:57;;;;;;;6.75;6.00;;;;;;;41.49;25.44;100585.22;1750390;80;21242;-90
2022/08/31 09:43:36;;;;;;;7.55;6.85;;;;;;;41.46;25.42;100580.86;1746891;80;21019;-90
2022/08/31 09:46:10;;;;;;;10.18;6.67;;;;;;;41.41;25.97;100575.69;1751025;80;20931;-91
2022/08/31 09:48:51;;;;;;;8.50;6.62;;;;;;;41.36;26.38;100580.48;1770869;80;21612;-91
2022/08/31 09:51:27;;;;;;;6.78;6.17;;;;;;;41.38;26.47;100572.73;1755549;80;21392;-90
2022/08/31 09:57:08;;;;;;;;;;;;;;;41.37;25.22;100566.95;1770341;80;21050;-90
2022/08/31 09:59:44;;;;;;;8.05;5.67;;;;;;;41.27;25.77;100564.36;1779126;80;20097;-92
2022/08/31 10:02:25;;;;;;;9.85;6.55;;;;;;;41.23;25.61;100567.48;1778062;80;20920;-90
2022/08/31 10:04:54;;;;;;;6.47;6.00;;;;;;;41.18;25.42;100560.12;1762364;80;20972;-90
2022/08/31 10:08:03;;;;;;;7.70;7.00;;;;;;;41.13;26.27;100556.86;1761351;80;21135;-92
2022/08/31 10:10:35;;;;;;;6.50;6.00;;;;;;;41.12;25.76;100557.14;1775364;78;21062;-90
2022/08/31 10:13:09;;;;;;;8.35;6.37;;;;;;;41.29;25.68;100557.46;1756470;80;20852;-90
2022/08/31 10:15:51;;;;;;;8.78;6.80;;;;;;;41.38;25.73;100553.47;1758946;81;21018;-90
2022/08/31 10:18:38;;;;;;;8.93;6.58;;;;;;;41.40;26.03;100556.70;1737302;80;21520;-92
2022/08/31 10:21:19;;;;;;;8.68;6.80;;;;;;;41.32;25.31;100556.04;1674586;83;21385;-89
2022/08/31 10:23:55;;;;;;;7.05;6.03;;;;;;;41.19;25.63;100550.73;1720143;83;21011;-91
2022/08/31 10:26:45;;;;;;;8.25;7.08;;;;;;;41.20;25.89;100552.35;1692022;83;20889;-89
2022/08/31 10:29:16;;;;;;;7.40;6.50;;;;;;;41.11;25.42;100545.86;1672454;83;20997;-91
2022/08/31 10:31:47;;;;;;;8.50;6.62;;;;;;;41.06;25.35;100551.45;1736711;80;21081;-92
2022/08/31 10:38:00;;;;;;;7.10;6.45;;;;;;;40.93;25.40;100541.45;1740611;80;20919;-90
2022/08/31 10:40:34;;;;;;;9.33;6.53;;;;;;;40.81;25.88;100541.90;1731429;80;21000;-91
2022/08/31 10:43:20;;;;;;;6.90;6.30;;;;;;;40.70;25.61;100539.03;1724763;80;20988;-91
2022/08/31 10:45:49;;;;;;;6.87;6.28;;;;;;;40.63;26.15;100539.94;1710648;82;20912;-92
2022/08/31 10:48:19;;;;;;;10.88;6.55;;;;;;;40.63;26.20;100539.13;1694142;83;21280;-91
2022/08/31 10:51:19;;;;;;;6.05;5.28;;;;;;;40.75;25.77;100529.33;1702227;82;20976;-90
2022/08/31 10:54:34;;;;;;;8.40;5.58;;;;;;;40.77;25.21;100529.05;1739526;80;20919;-90
2022/08/31 10:57:46;;;;;;;6.47;4.97;;;;;;;40.76;25.33;100521.92;1687992;82;21006;-92
2022/08/31 11:03:31;;;;;;;5.60;5.10;;;;;;;40.73;24.52;100521.93;1731256;82;21241;-92
2022/08/31 11:06:26;;;;;;;5.92;5.33;;;;;;;40.74;24.42;100514.52;1731189;80;21048;-90
2022/08/31 11:09:18;;;;;;;6.20;5.72;;;;;;;40.62;24.33;100510.78;1687183;83;20932;-91
2022/08/31 11:11:50;;;;;;;;;;;;;;;40.29;24.93;100508.48;1654903;84;21019;-92
2022/08/31 11:14:52;;;;;;;6.55;5.95;;;;;;;40.33;25.26;100498.53;1721842;82;20409;-91
2022/08/31 11:18:02;;;;;;;7.00;6.17;;;;;;;40.26;25.06;100500.23;1730506;80;21168;-91
2022/08/31 11:20:50;;;;;;;6.45;5.50;;;;;;;40.16;25.55;100499.82;1740632;80;21003;-91
2022/08/31 11:23:52;;;;;;;6.37;5.37;;;;;;;40.02;25.59;100495.31;1680401;80;21580;-92
2022/08/31 11:26:51;;;;;;;7.85;5.15;;;;;;;40.09;25.68;100491.66;1741245;80;20931;-92
2022/08/31 11:29:45;;;;;;;7.20;5.17;;;;;;;40.08;25.57;100482.59;1728849;81;20975;-92
2022/08/31 11:32:27;;;;;;;6.72;5.37;;;;;;;39.95;25.67;100482.75;1719040;80;21152;-94
2022/08/31 11:34:56;;;;;;;5.70;4.90;;;;;;;39.84;25.87;100482.59;1723043;80;21405;-92
2022/08/31 11:37:55;;;;;;;7.15;5.30;;;;;;;39.85;26.04;100487.00;1702425;82;21391;-91
2022/08/31 11:40:46;;;;;;;8.97;5.63;;;;;;;39.72;25.58;100474.74;1699721;82;20943;-93
2022/08/31 11:43:38;;;;;;;7.62;5.75;;;;;;;39.54;26.02;100477.67;1743230;82;20907;-93
2022/08/31 11:46:26;;;;;;;6.55;5.60;;;;;;;39.35;26.00;100469.33;1726507;81;21099;-91
2022/08/31 11:48:57;;;;;;;6.72;5.37;;;;;;;39.17;26.27;100468.09;1739398;81;20963;-90
2022/08/31 11:51:41;;;;;;;8.73;5.63;;;;;;;38.93;26.56;100461.67;1732464;81;20923;-92
2022/08/31 11:54:26;;;;;;;7.62;5.72;;;;;;;38.76;27.00;100460.70;1724954;80;21513;-92
2022/08/31 11:56:55;;;;;;;9.70;5.30;;;;;;;38.67;27.61;100462.42;1710910;82;20964;-93
2022/08/31 11:59:34;;;;;;;6.03;5.37;;;;;;;38.51;27.54;100455.66;1691633;82;22525;-90
2022/08/31 12:02:25;;;;;;;6.47;5.58;;;;;;;38.39;27.58;100455.69;1705593;82;21007;-93
2022/08/31 12:04:59;;;;;;;8.43;5.60;;;;;;;38.21;27.99;100448.38;1677605;84;20960;-93
2022/08/31 12:07:42;;;;;;;6.23;5.53;;;;;;;37.92;28.03;100457.21;1711987;82;20951;-92